sensor_id;sensor_type;location;lat;lon;timestamp;P1;durP1;ratioP1;P2;durP2;ratioP2
18780;SDS011;9519;51.890;8.970;2023-03-18T00:01:09;7.90;;;2.20;;
18780;SDS011;9519;51.890;8.970;2023-03-18T00:06:12;9.37;;;2.77;;
18780;SDS011;9519;51.890;8.970;2023-03-18T00:11:18;12.00;;;5.17;;
18780;SDS011;9519;51.890;8.970;2023-03-18T00:16:22;7.23;;;3.03;;
18780;SDS011;9519;51.890;8.970;2023-03-18T00:21:26;8.10;;;2.80;;
18780;SDS011;9519;51.890;8.970;2023-03-18T00:26:28;9.60;;;4.27;;
18780;SDS011;9519;51.890;8.970;2023-03-18T00:31:32;10.27;;;4.00;;
18780;SDS011;9519;51.890;8.970;2023-03-18T00:36:34;11.10;;;5.13;;
18780;SDS011;9519;51.890;8.970;2023-03-18T00:41:37;7.03;;;3.80;;
18780;SDS011;9519;51.890;8.970;2023-03-18T00:46:41;9.37;;;4.47;;
18780;SDS011;9519;51.890;8.970;2023-03-18T00:51:43;12.73;;;4.80;;
18780;SDS011;9519;51.890;8.970;2023-03-18T00:56:45;8.87;;;4.20;;
18780;SDS011;9519;51.890;8.970;2023-03-18T01:01:49;11.53;;;4.20;;
18780;SDS011;9519;51.890;8.970;2023-03-18T01:06:52;10.13;;;4.40;;
18780;SDS011;9519;51.890;8.970;2023-03-18T01:11:54;11.17;;;4.60;;
18780;SDS011;9519;51.890;8.970;2023-03-18T01:16:58;10.17;;;4.57;;
18780;SDS011;9519;51.890;8.970;2023-03-18T01:22:00;20.03;;;7.50;;
18780;SDS011;9519;51.890;8.970;2023-03-18T01:27:03;15.43;;;5.23;;
18780;SDS011;9519;51.890;8.970;2023-03-18T01:32:06;8.90;;;4.00;;
18780;SDS011;9519;51.890;8.970;2023-03-18T01:37:09;12.40;;;3.97;;
18780;SDS011;9519;51.890;8.970;2023-03-18T01:42:11;8.53;;;3.80;;
18780;SDS011;9519;51.890;8.970;2023-03-18T01:47:18;13.03;;;4.60;;
18780;SDS011;9519;51.890;8.970;2023-03-18T01:52:21;9.63;;;4.33;;
18780;SDS011;9519;51.890;8.970;2023-03-18T01:57:28;8.73;;;4.00;;
18780;SDS011;9519;51.890;8.970;2023-03-18T02:02:34;9.27;;;4.60;;
18780;SDS011;9519;51.890;8.970;2023-03-18T02:07:39;10.77;;;4.40;;
18780;SDS011;9519;51.890;8.970;2023-03-18T02:12:43;13.50;;;4.83;;
18780;SDS011;9519;51.890;8.970;2023-03-18T02:17:52;12.07;;;4.90;;
18780;SDS011;9519;51.890;8.970;2023-03-18T02:23:02;11.60;;;4.70;;
18780;SDS011;9519;51.890;8.970;2023-03-18T02:28:18;14.10;;;5.37;;
18780;SDS011;9519;51.890;8.970;2023-03-18T02:33:25;9.57;;;4.73;;
18780;SDS011;9519;51.890;8.970;2023-03-18T02:38:33;11.57;;;5.30;;
18780;SDS011;9519;51.890;8.970;2023-03-18T02:43:37;11.17;;;5.90;;
18780;SDS011;9519;51.890;8.970;2023-03-18T02:48:40;11.80;;;5.60;;
18780;SDS011;9519;51.890;8.970;2023-03-18T02:53:44;13.80;;;6.47;;
18780;SDS011;9519;51.890;8.970;2023-03-18T02:58:48;14.83;;;7.17;;
18780;SDS011;9519;51.890;8.970;2023-03-18T03:03:50;13.70;;;7.97;;
18780;SDS011;9519;51.890;8.970;2023-03-18T03:08:52;12.57;;;8.53;;
18780;SDS011;9519;51.890;8.970;2023-03-18T03:13:57;16.47;;;8.83;;
18780;SDS011;9519;51.890;8.970;2023-03-18T03:18:59;17.13;;;8.97;;
18780;SDS011;9519;51.890;8.970;2023-03-18T03:24:03;17.17;;;9.53;;
18780;SDS011;9519;51.890;8.970;2023-03-18T03:29:09;21.07;;;10.30;;
18780;SDS011;9519;51.890;8.970;2023-03-18T03:34:11;14.47;;;8.60;;
18780;SDS011;9519;51.890;8.970;2023-03-18T03:39:13;12.47;;;8.57;;
18780;SDS011;9519;51.890;8.970;2023-03-18T03:44:17;14.70;;;9.03;;
18780;SDS011;9519;51.890;8.970;2023-03-18T03:49:20;13.90;;;8.83;;
18780;SDS011;9519;51.890;8.970;2023-03-18T03:54:22;13.37;;;8.97;;
18780;SDS011;9519;51.890;8.970;2023-03-18T03:59:27;14.10;;;9.07;;
18780;SDS011;9519;51.890;8.970;2023-03-18T04:04:29;13.07;;;7.57;;
18780;SDS011;9519;51.890;8.970;2023-03-18T04:09:31;15.07;;;8.43;;
18780;SDS011;9519;51.890;8.970;2023-03-18T04:14:36;16.43;;;8.33;;
18780;SDS011;9519;51.890;8.970;2023-03-18T04:19:38;17.63;;;10.10;;
18780;SDS011;9519;51.890;8.970;2023-03-18T04:24:40;16.30;;;9.50;;
18780;SDS011;9519;51.890;8.970;2023-03-18T04:29:45;14.67;;;9.87;;
18780;SDS011;9519;51.890;8.970;2023-03-18T04:34:47;17.37;;;9.60;;
18780;SDS011;9519;51.890;8.970;2023-03-18T04:39:49;12.53;;;8.00;;
18780;SDS011;9519;51.890;8.970;2023-03-18T04:44:52;12.40;;;7.10;;
18780;SDS011;9519;51.890;8.970;2023-03-18T04:49:54;14.47;;;7.13;;
18780;SDS011;9519;51.890;8.970;2023-03-18T04:54:56;12.53;;;6.47;;
18780;SDS011;9519;51.890;8.970;2023-03-18T05:00:00;13.60;;;5.90;;
18780;SDS011;9519;51.890;8.970;2023-03-18T05:05:04;9.37;;;6.00;;
18780;SDS011;9519;51.890;8.970;2023-03-18T05:10:07;10.30;;;6.50;;
18780;SDS011;9519;51.890;8.970;2023-03-18T05:15:12;8.90;;;5.73;;
18780;SDS011;9519;51.890;8.970;2023-03-18T05:20:14;13.70;;;7.50;;
18780;SDS011;9519;51.890;8.970;2023-03-18T05:25:16;12.07;;;7.77;;
18780;SDS011;9519;51.890;8.970;2023-03-18T05:30:20;13.30;;;7.03;;
18780;SDS011;9519;51.890;8.970;2023-03-18T05:35:22;15.60;;;7.23;;
18780;SDS011;9519;51.890;8.970;2023-03-18T05:40:25;11.90;;;7.00;;
18780;SDS011;9519;51.890;8.970;2023-03-18T05:45:29;12.40;;;7.27;;
18780;SDS011;9519;51.890;8.970;2023-03-18T05:50:33;14.63;;;8.07;;
18780;SDS011;9519;51.890;8.970;2023-03-18T05:55:38;11.63;;;7.77;;
18780;SDS011;9519;51.890;8.970;2023-03-18T06:00:42;13.20;;;7.53;;
18780;SDS011;9519;51.890;8.970;2023-03-18T06:05:44;11.70;;;7.00;;
18780;SDS011;9519;51.890;8.970;2023-03-18T06:10:48;14.93;;;8.33;;
18780;SDS011;9519;51.890;8.970;2023-03-18T06:15:56;13.13;;;8.00;;
18780;SDS011;9519;51.890;8.970;2023-03-18T06:20:59;12.33;;;8.10;;
18780;SDS011;9519;51.890;8.970;2023-03-18T06:26:02;14.23;;;8.70;;
18780;SDS011;9519;51.890;8.970;2023-03-18T06:31:07;11.47;;;8.40;;
18780;SDS011;9519;51.890;8.970;2023-03-18T06:36:09;12.00;;;8.10;;
18780;SDS011;9519;51.890;8.970;2023-03-18T06:41:11;13.70;;;7.70;;
18780;SDS011;9519;51.890;8.970;2023-03-18T06:46:16;11.10;;;7.60;;
18780;SDS011;9519;51.890;8.970;2023-03-18T06:51:19;13.17;;;7.60;;
18780;SDS011;9519;51.890;8.970;2023-03-18T06:56:21;17.50;;;8.77;;
18780;SDS011;9519;51.890;8.970;2023-03-18T07:01:26;11.83;;;8.47;;
18780;SDS011;9519;51.890;8.970;2023-03-18T07:06:29;10.87;;;7.30;;
18780;SDS011;9519;51.890;8.970;2023-03-18T07:11:31;10.33;;;5.50;;
18780;SDS011;9519;51.890;8.970;2023-03-18T07:16:34;8.60;;;4.60;;
18780;SDS011;9519;51.890;8.970;2023-03-18T07:21:36;8.87;;;4.13;;
18780;SDS011;9519;51.890;8.970;2023-03-18T07:26:41;7.17;;;3.90;;
18780;SDS011;9519;51.890;8.970;2023-03-18T07:31:45;8.10;;;4.20;;
18780;SDS011;9519;51.890;8.970;2023-03-18T07:36:47;8.03;;;4.37;;
18780;SDS011;9519;51.890;8.970;2023-03-18T07:41:49;9.80;;;4.40;;
18780;SDS011;9519;51.890;8.970;2023-03-18T07:46:53;13.67;;;6.50;;
18780;SDS011;9519;51.890;8.970;2023-03-18T07:51:55;9.30;;;4.50;;
18780;SDS011;9519;51.890;8.970;2023-03-18T07:56:57;7.67;;;3.57;;
18780;SDS011;9519;51.890;8.970;2023-03-18T08:02:01;8.53;;;3.97;;
18780;SDS011;9519;51.890;8.970;2023-03-18T08:07:05;8.57;;;4.23;;
18780;SDS011;9519;51.890;8.970;2023-03-18T08:12:08;9.63;;;3.67;;
18780;SDS011;9519;51.890;8.970;2023-03-18T08:17:11;8.20;;;4.07;;
18780;SDS011;9519;51.890;8.970;2023-03-18T08:22:13;8.13;;;4.47;;
18780;SDS011;9519;51.890;8.970;2023-03-18T08:27:16;8.20;;;4.27;;
18780;SDS011;9519;51.890;8.970;2023-03-18T08:32:19;8.70;;;4.47;;
18780;SDS011;9519;51.890;8.970;2023-03-18T08:37:21;8.40;;;3.83;;
18780;SDS011;9519;51.890;8.970;2023-03-18T08:42:23;10.33;;;4.33;;
18780;SDS011;9519;51.890;8.970;2023-03-18T08:47:28;10.63;;;4.97;;
18780;SDS011;9519;51.890;8.970;2023-03-18T08:52:30;9.47;;;4.03;;
18780;SDS011;9519;51.890;8.970;2023-03-18T08:57:32;9.93;;;5.07;;
18780;SDS011;9519;51.890;8.970;2023-03-18T09:02:36;13.90;;;5.90;;
18780;SDS011;9519;51.890;8.970;2023-03-18T09:07:38;8.90;;;4.40;;
18780;SDS011;9519;51.890;8.970;2023-03-18T09:12:40;11.10;;;5.97;;
18780;SDS011;9519;51.890;8.970;2023-03-18T09:17:44;9.63;;;5.10;;
18780;SDS011;9519;51.890;8.970;2023-03-18T09:22:47;9.20;;;4.70;;
18780;SDS011;9519;51.890;8.970;2023-03-18T09:27:51;8.47;;;4.97;;
18780;SDS011;9519;51.890;8.970;2023-03-18T09:32:55;13.20;;;7.43;;
18780;SDS011;9519;51.890;8.970;2023-03-18T09:37:57;11.10;;;6.60;;
18780;SDS011;9519;51.890;8.970;2023-03-18T09:43:04;9.50;;;5.70;;
18780;SDS011;9519;51.890;8.970;2023-03-18T09:48:36;10.10;;;7.40;;
18780;SDS011;9519;51.890;8.970;2023-03-18T09:54:03;10.33;;;8.27;;
18780;SDS011;9519;51.890;8.970;2023-03-18T09:59:15;7.67;;;4.97;;
18780;SDS011;9519;51.890;8.970;2023-03-18T10:04:23;7.27;;;4.10;;
18780;SDS011;9519;51.890;8.970;2023-03-18T10:09:30;7.30;;;4.00;;
18780;SDS011;9519;51.890;8.970;2023-03-18T10:14:44;4.93;;;3.33;;
18780;SDS011;9519;51.890;8.970;2023-03-18T10:19:58;6.17;;;2.90;;
18780;SDS011;9519;51.890;8.970;2023-03-18T10:25:05;7.57;;;4.20;;
18780;SDS011;9519;51.890;8.970;2023-03-18T10:35:59;6.30;;;4.00;;
18780;SDS011;9519;51.890;8.970;2023-03-18T10:41:13;5.87;;;3.53;;
18780;SDS011;9519;51.890;8.970;2023-03-18T10:46:22;16.93;;;8.87;;
18780;SDS011;9519;51.890;8.970;2023-03-18T10:51:30;25.40;;;12.83;;
18780;SDS011;9519;51.890;8.970;2023-03-18T10:56:40;19.63;;;9.67;;
18780;SDS011;9519;51.890;8.970;2023-03-18T11:01:43;6.80;;;3.40;;
18780;SDS011;9519;51.890;8.970;2023-03-18T11:06:50;7.33;;;3.43;;
18780;SDS011;9519;51.890;8.970;2023-03-18T11:12:01;6.07;;;3.53;;
18780;SDS011;9519;51.890;8.970;2023-03-18T11:17:16;6.43;;;3.50;;
18780;SDS011;9519;51.890;8.970;2023-03-18T11:22:24;5.50;;;2.87;;
18780;SDS011;9519;51.890;8.970;2023-03-18T11:27:32;4.63;;;2.43;;
18780;SDS011;9519;51.890;8.970;2023-03-18T11:32:39;7.93;;;3.73;;
18780;SDS011;9519;51.890;8.970;2023-03-18T11:37:54;4.93;;;2.07;;
18780;SDS011;9519;51.890;8.970;2023-03-18T11:42:57;6.10;;;3.20;;
18780;SDS011;9519;51.890;8.970;2023-03-18T11:48:02;3.30;;;1.93;;
18780;SDS011;9519;51.890;8.970;2023-03-18T11:53:14;3.13;;;1.53;;
18780;SDS011;9519;51.890;8.970;2023-03-18T11:58:41;3.30;;;1.67;;
18780;SDS011;9519;51.890;8.970;2023-03-18T12:04:25;4.17;;;1.70;;
18780;SDS011;9519;51.890;8.970;2023-03-18T12:10:11;3.40;;;1.50;;
18780;SDS011;9519;51.890;8.970;2023-03-18T12:15:30;5.30;;;2.13;;
18780;SDS011;9519;51.890;8.970;2023-03-18T12:20:49;3.30;;;1.90;;
18780;SDS011;9519;51.890;8.970;2023-03-18T12:25:59;4.33;;;1.83;;
18780;SDS011;9519;51.890;8.970;2023-03-18T12:31:14;5.33;;;1.90;;
18780;SDS011;9519;51.890;8.970;2023-03-18T12:36:56;4.97;;;1.90;;
18780;SDS011;9519;51.890;8.970;2023-03-18T12:42:13;4.13;;;1.80;;
18780;SDS011;9519;51.890;8.970;2023-03-18T12:47:22;4.37;;;1.73;;
18780;SDS011;9519;51.890;8.970;2023-03-18T12:52:34;5.63;;;2.60;;
18780;SDS011;9519;51.890;8.970;2023-03-18T12:57:45;5.37;;;1.57;;
18780;SDS011;9519;51.890;8.970;2023-03-18T13:02:55;4.67;;;1.40;;
18780;SDS011;9519;51.890;8.970;2023-03-18T13:08:10;4.27;;;1.20;;
18780;SDS011;9519;51.890;8.970;2023-03-18T13:13:37;2.70;;;1.20;;
18780;SDS011;9519;51.890;8.970;2023-03-18T13:18:47;2.85;;;0.80;;
18780;SDS011;9519;51.890;8.970;2023-03-18T13:30:03;3.53;;;1.00;;
18780;SDS011;9519;51.890;8.970;2023-03-18T13:35:42;2.58;;;1.10;;
18780;SDS011;9519;51.890;8.970;2023-03-18T13:41:28;5.40;;;1.85;;
18780;SDS011;9519;51.890;8.970;2023-03-18T13:46:51;4.90;;;1.20;;
18780;SDS011;9519;51.890;8.970;2023-03-18T13:51:59;3.70;;;1.40;;
18780;SDS011;9519;51.890;8.970;2023-03-18T13:57:17;2.25;;;1.15;;
18780;SDS011;9519;51.890;8.970;2023-03-18T14:02:44;4.32;;;1.90;;
18780;SDS011;9519;51.890;8.970;2023-03-18T14:07:47;4.75;;;1.20;;
18780;SDS011;9519;51.890;8.970;2023-03-18T14:12:49;3.03;;;1.23;;
18780;SDS011;9519;51.890;8.970;2023-03-18T14:17:53;3.20;;;1.17;;
18780;SDS011;9519;51.890;8.970;2023-03-18T14:29:13;3.47;;;1.40;;
18780;SDS011;9519;51.890;8.970;2023-03-18T14:34:31;5.68;;;2.08;;
18780;SDS011;9519;51.890;8.970;2023-03-18T14:39:53;5.38;;;1.23;;
18780;SDS011;9519;51.890;8.970;2023-03-18T14:45:11;5.00;;;1.25;;
18780;SDS011;9519;51.890;8.970;2023-03-18T14:51:12;14.75;;;5.15;;
18780;SDS011;9519;51.890;8.970;2023-03-18T14:56:20;3.80;;;1.30;;
18780;SDS011;9519;51.890;8.970;2023-03-18T15:01:24;4.60;;;1.10;;
18780;SDS011;9519;51.890;8.970;2023-03-18T15:06:39;6.75;;;1.98;;
18780;SDS011;9519;51.890;8.970;2023-03-18T15:11:43;4.55;;;1.15;;
18780;SDS011;9519;51.890;8.970;2023-03-18T15:16:51;7.15;;;2.08;;
18780;SDS011;9519;51.890;8.970;2023-03-18T15:21:56;2.72;;;0.95;;
18780;SDS011;9519;51.890;8.970;2023-03-18T15:27:04;3.88;;;1.70;;
18780;SDS011;9519;51.890;8.970;2023-03-18T15:32:15;6.47;;;2.10;;
18780;SDS011;9519;51.890;8.970;2023-03-18T15:37:24;8.70;;;3.67;;
18780;SDS011;9519;51.890;8.970;2023-03-18T15:42:39;7.43;;;2.22;;
18780;SDS011;9519;51.890;8.970;2023-03-18T15:47:44;3.65;;;1.05;;
18780;SDS011;9519;51.890;8.970;2023-03-18T15:52:48;5.88;;;1.42;;
18780;SDS011;9519;51.890;8.970;2023-03-18T15:57:51;4.60;;;1.60;;
18780;SDS011;9519;51.890;8.970;2023-03-18T16:02:54;3.38;;;1.17;;
18780;SDS011;9519;51.890;8.970;2023-03-18T16:07:57;5.75;;;1.52;;
18780;SDS011;9519;51.890;8.970;2023-03-18T16:12:59;14.82;;;5.00;;
18780;SDS011;9519;51.890;8.970;2023-03-18T16:18:03;4.60;;;1.27;;
18780;SDS011;9519;51.890;8.970;2023-03-18T16:23:07;4.20;;;1.33;;
18780;SDS011;9519;51.890;8.970;2023-03-18T16:28:14;4.60;;;1.13;;
18780;SDS011;9519;51.890;8.970;2023-03-18T16:33:20;6.13;;;2.30;;
18780;SDS011;9519;51.890;8.970;2023-03-18T16:38:25;5.05;;;1.42;;
18780;SDS011;9519;51.890;8.970;2023-03-18T16:43:29;4.38;;;1.30;;
18780;SDS011;9519;51.890;8.970;2023-03-18T16:48:32;5.45;;;1.30;;
18780;SDS011;9519;51.890;8.970;2023-03-18T16:53:36;9.38;;;1.52;;
18780;SDS011;9519;51.890;8.970;2023-03-18T16:58:38;4.50;;;1.50;;
18780;SDS011;9519;51.890;8.970;2023-03-18T17:03:40;4.72;;;1.58;;
18780;SDS011;9519;51.890;8.970;2023-03-18T17:08:44;4.05;;;1.50;;
18780;SDS011;9519;51.890;8.970;2023-03-18T17:13:46;5.30;;;1.80;;
18780;SDS011;9519;51.890;8.970;2023-03-18T17:18:48;5.27;;;1.70;;
18780;SDS011;9519;51.890;8.970;2023-03-18T17:23:51;7.73;;;1.87;;
18780;SDS011;9519;51.890;8.970;2023-03-18T17:28:54;5.13;;;1.70;;
18780;SDS011;9519;51.890;8.970;2023-03-18T17:33:57;7.20;;;1.63;;
18780;SDS011;9519;51.890;8.970;2023-03-18T17:39:01;5.57;;;1.60;;
18780;SDS011;9519;51.890;8.970;2023-03-18T17:44:10;8.00;;;2.57;;
18780;SDS011;9519;51.890;8.970;2023-03-18T17:49:27;7.40;;;2.83;;
18780;SDS011;9519;51.890;8.970;2023-03-18T17:54:31;7.17;;;2.00;;
18780;SDS011;9519;51.890;8.970;2023-03-18T17:59:33;14.63;;;5.80;;
18780;SDS011;9519;51.890;8.970;2023-03-18T18:04:35;11.87;;;4.37;;
18780;SDS011;9519;51.890;8.970;2023-03-18T18:09:40;7.67;;;2.83;;
18780;SDS011;9519;51.890;8.970;2023-03-18T18:14:42;7.50;;;2.47;;
18780;SDS011;9519;51.890;8.970;2023-03-18T18:19:44;4.73;;;2.00;;
18780;SDS011;9519;51.890;8.970;2023-03-18T18:24:48;14.30;;;4.47;;
18780;SDS011;9519;51.890;8.970;2023-03-18T18:29:51;6.47;;;1.77;;
18780;SDS011;9519;51.890;8.970;2023-03-18T18:34:54;6.10;;;2.07;;
18780;SDS011;9519;51.890;8.970;2023-03-18T18:39:57;10.57;;;3.40;;
18780;SDS011;9519;51.890;8.970;2023-03-18T18:44:59;13.67;;;5.03;;
18780;SDS011;9519;51.890;8.970;2023-03-18T18:50:03;7.43;;;2.43;;
18780;SDS011;9519;51.890;8.970;2023-03-18T18:55:08;8.67;;;3.10;;
18780;SDS011;9519;51.890;8.970;2023-03-18T19:00:13;7.03;;;3.67;;
18780;SDS011;9519;51.890;8.970;2023-03-18T19:05:17;7.43;;;4.03;;
18780;SDS011;9519;51.890;8.970;2023-03-18T19:10:22;8.43;;;4.13;;
18780;SDS011;9519;51.890;8.970;2023-03-18T19:15:24;7.80;;;5.37;;
18780;SDS011;9519;51.890;8.970;2023-03-18T19:20:28;11.97;;;7.17;;
18780;SDS011;9519;51.890;8.970;2023-03-18T19:25:32;11.70;;;6.80;;
18780;SDS011;9519;51.890;8.970;2023-03-18T19:30:36;11.37;;;7.30;;
18780;SDS011;9519;51.890;8.970;2023-03-18T19:35:39;17.80;;;11.20;;
18780;SDS011;9519;51.890;8.970;2023-03-18T19:40:42;12.97;;;9.30;;
18780;SDS011;9519;51.890;8.970;2023-03-18T19:45:44;16.67;;;12.70;;
18780;SDS011;9519;51.890;8.970;2023-03-18T19:50:48;12.67;;;8.70;;
18780;SDS011;9519;51.890;8.970;2023-03-18T19:55:52;12.57;;;6.77;;
18780;SDS011;9519;51.890;8.970;2023-03-18T20:00:54;10.37;;;7.30;;
18780;SDS011;9519;51.890;8.970;2023-03-18T20:05:57;12.83;;;7.93;;
18780;SDS011;9519;51.890;8.970;2023-03-18T20:11:01;11.27;;;9.20;;
18780;SDS011;9519;51.890;8.970;2023-03-18T20:16:03;12.80;;;8.07;;
18780;SDS011;9519;51.890;8.970;2023-03-18T20:21:08;10.57;;;8.50;;
18780;SDS011;9519;51.890;8.970;2023-03-18T20:26:22;13.07;;;9.87;;
18780;SDS011;9519;51.890;8.970;2023-03-18T20:31:25;13.00;;;9.23;;
18780;SDS011;9519;51.890;8.970;2023-03-18T20:36:28;14.70;;;9.70;;
18780;SDS011;9519;51.890;8.970;2023-03-18T20:41:32;16.40;;;12.23;;
18780;SDS011;9519;51.890;8.970;2023-03-18T20:46:37;15.60;;;10.47;;
18780;SDS011;9519;51.890;8.970;2023-03-18T20:51:41;15.93;;;10.10;;
18780;SDS011;9519;51.890;8.970;2023-03-18T20:56:46;13.43;;;9.77;;
18780;SDS011;9519;51.890;8.970;2023-03-18T21:01:48;15.90;;;11.00;;
18780;SDS011;9519;51.890;8.970;2023-03-18T21:06:51;11.93;;;8.27;;
18780;SDS011;9519;51.890;8.970;2023-03-18T21:11:55;11.60;;;9.00;;
18780;SDS011;9519;51.890;8.970;2023-03-18T21:16:57;13.80;;;9.97;;
18780;SDS011;9519;51.890;8.970;2023-03-18T21:21:59;13.37;;;10.53;;
18780;SDS011;9519;51.890;8.970;2023-03-18T21:27:02;36.67;;;23.27;;
18780;SDS011;9519;51.890;8.970;2023-03-18T21:32:04;31.00;;;19.37;;
18780;SDS011;9519;51.890;8.970;2023-03-18T21:37:13;22.83;;;16.20;;
18780;SDS011;9519;51.890;8.970;2023-03-18T21:42:20;24.47;;;16.10;;
18780;SDS011;9519;51.890;8.970;2023-03-18T21:47:25;21.27;;;14.50;;
18780;SDS011;9519;51.890;8.970;2023-03-18T21:52:28;18.53;;;14.50;;
18780;SDS011;9519;51.890;8.970;2023-03-18T21:57:36;20.80;;;15.47;;
18780;SDS011;9519;51.890;8.970;2023-03-18T22:02:38;31.80;;;20.20;;
18780;SDS011;9519;51.890;8.970;2023-03-18T22:07:40;16.07;;;13.40;;
18780;SDS011;9519;51.890;8.970;2023-03-18T22:12:44;17.23;;;11.73;;
18780;SDS011;9519;51.890;8.970;2023-03-18T22:17:46;13.60;;;11.40;;
18780;SDS011;9519;51.890;8.970;2023-03-18T22:22:48;15.10;;;9.17;;
18780;SDS011;9519;51.890;8.970;2023-03-18T22:27:52;12.90;;;10.83;;
18780;SDS011;9519;51.890;8.970;2023-03-18T22:32:54;15.20;;;12.10;;
18780;SDS011;9519;51.890;8.970;2023-03-18T22:37:57;15.27;;;10.67;;
18780;SDS011;9519;51.890;8.970;2023-03-18T22:43:01;14.83;;;10.57;;
18780;SDS011;9519;51.890;8.970;2023-03-18T22:48:03;12.67;;;10.17;;
18780;SDS011;9519;51.890;8.970;2023-03-18T22:53:10;11.40;;;8.60;;
18780;SDS011;9519;51.890;8.970;2023-03-18T22:58:22;11.60;;;8.50;;
18780;SDS011;9519;51.890;8.970;2023-03-18T23:03:28;15.10;;;9.17;;
18780;SDS011;9519;51.890;8.970;2023-03-18T23:08:32;14.33;;;8.33;;
18780;SDS011;9519;51.890;8.970;2023-03-18T23:13:36;10.80;;;7.70;;
18780;SDS011;9519;51.890;8.970;2023-03-18T23:18:40;10.63;;;6.73;;
18780;SDS011;9519;51.890;8.970;2023-03-18T23:23:42;10.63;;;7.70;;
18780;SDS011;9519;51.890;8.970;2023-03-18T23:28:46;11.40;;;7.43;;
18780;SDS011;9519;51.890;8.970;2023-03-18T23:33:48;11.50;;;8.20;;
18780;SDS011;9519;51.890;8.970;2023-03-18T23:38:50;11.70;;;8.67;;
18780;SDS011;9519;51.890;8.970;2023-03-18T23:43:54;11.67;;;8.87;;
18780;SDS011;9519;51.890;8.970;2023-03-18T23:48:56;13.77;;;8.20;;
18780;SDS011;9519;51.890;8.970;2023-03-18T23:53:58;11.03;;;7.03;;
18780;SDS011;9519;51.890;8.970;2023-03-18T23:59:02;12.53;;;6.00;;
